sensor_id;sensor_type;location;lat;lon;timestamp;pressure;altitude;pressure_sealevel;temperature;humidity
26087;BME280;13851;43.434;28.338;2022-11-20T00:02:17;99806.00;;;16.25;100.00
26087;BME280;13851;43.434;28.338;2022-11-20T00:04:43;99637.28;;;15.30;100.00
26087;BME280;13851;43.434;28.338;2022-11-20T00:07:08;99802.16;;;16.26;100.00
26087;BME280;13851;43.434;28.338;2022-11-20T00:09:34;99784.31;;;16.22;100.00
26087;BME280;13851;43.434;28.338;2022-11-20T00:11:59;99797.09;;;16.23;100.00
26087;BME280;13851;43.434;28.338;2022-11-20T00:14:25;99764.00;;;16.09;100.00
26087;BME280;13851;43.434;28.338;2022-11-20T00:16:50;99792.16;;;16.31;100.00
26087;BME280;13851;43.434;28.338;2022-11-20T00:19:16;99797.47;;;16.33;100.00
26087;BME280;13851;43.434;28.338;2022-11-20T00:21:41;99805.06;;;16.44;100.00
26087;BME280;13851;43.434;28.338;2022-11-20T00:24:08;99789.75;;;16.42;100.00
26087;BME280;13851;43.434;28.338;2022-11-20T00:26:35;99820.56;;;16.45;100.00
26087;BME280;13851;43.434;28.338;2022-11-20T00:29:01;99596.94;;;15.29;100.00
26087;BME280;13851;43.434;28.338;2022-11-20T00:31:28;99632.50;;;15.50;100.00
26087;BME280;13851;43.434;28.338;2022-11-20T00:33:54;99817.00;;;16.38;100.00
26087;BME280;13851;43.434;28.338;2022-11-20T00:36:22;99795.31;;;16.35;100.00
26087;BME280;13851;43.434;28.338;2022-11-20T00:38:51;99791.94;;;16.33;100.00
26087;BME280;13851;43.434;28.338;2022-11-20T00:41:17;99635.06;;;15.52;100.00
26087;BME280;13851;43.434;28.338;2022-11-20T00:43:43;99826.66;;;16.60;100.00
26087;BME280;13851;43.434;28.338;2022-11-20T00:46:16;99802.00;;;16.52;100.00
26087;BME280;13851;43.434;28.338;2022-11-20T00:48:43;99621.22;;;15.58;100.00
26087;BME280;13851;43.434;28.338;2022-11-20T00:51:09;99781.63;;;16.47;100.00
26087;BME280;13851;43.434;28.338;2022-11-20T00:53:36;99790.09;;;16.52;100.00
26087;BME280;13851;43.434;28.338;2022-11-20T00:56:04;99770.56;;;16.47;100.00
26087;BME280;13851;43.434;28.338;2022-11-20T00:58:34;99774.41;;;16.46;100.00
26087;BME280;13851;43.434;28.338;2022-11-20T01:03:33;99763.84;;;16.36;100.00
26087;BME280;13851;43.434;28.338;2022-11-20T01:06:07;99785.47;;;16.46;100.00
26087;BME280;13851;43.434;28.338;2022-11-20T01:08:34;99799.47;;;16.51;100.00
26087;BME280;13851;43.434;28.338;2022-11-20T01:11:01;99783.97;;;16.50;100.00
26087;BME280;13851;43.434;28.338;2022-11-20T01:13:27;99760.88;;;16.31;100.00
26087;BME280;13851;43.434;28.338;2022-11-20T01:16:15;99770.63;;;16.40;100.00
26087;BME280;13851;43.434;28.338;2022-11-20T01:18:43;99758.41;;;16.23;100.00
26087;BME280;13851;43.434;28.338;2022-11-20T01:21:15;99778.38;;;16.25;100.00
26087;BME280;13851;43.434;28.338;2022-11-20T01:23:42;99607.19;;;15.22;100.00
26087;BME280;13851;43.434;28.338;2022-11-20T01:26:11;99789.19;;;16.33;100.00
26087;BME280;13851;43.434;28.338;2022-11-20T01:28:37;99755.28;;;16.13;100.00
26087;BME280;13851;43.434;28.338;2022-11-20T01:33:41;99804.31;;;16.24;100.00
26087;BME280;13851;43.434;28.338;2022-11-20T01:36:08;99789.44;;;16.25;100.00
26087;BME280;13851;43.434;28.338;2022-11-20T01:38:34;99740.00;;;16.03;100.00
26087;BME280;13851;43.434;28.338;2022-11-20T01:41:02;99782.13;;;16.37;100.00
26087;BME280;13851;43.434;28.338;2022-11-20T01:43:28;99611.78;;;15.41;100.00
26087;BME280;13851;43.434;28.338;2022-11-20T01:46:18;99784.25;;;16.35;100.00
26087;BME280;13851;43.434;28.338;2022-11-20T01:48:49;99813.06;;;16.59;100.00
26087;BME280;13851;43.434;28.338;2022-11-20T01:51:29;99748.88;;;16.50;100.00
26087;BME280;13851;43.434;28.338;2022-11-20T01:54:00;99753.50;;;16.56;100.00
26087;BME280;13851;43.434;28.338;2022-11-20T01:56:28;99758.13;;;16.62;100.00
26087;BME280;13851;43.434;28.338;2022-11-20T01:58:59;99592.13;;;15.63;100.00
26087;BME280;13851;43.434;28.338;2022-11-20T02:01:26;99737.63;;;16.45;100.00
26087;BME280;13851;43.434;28.338;2022-11-20T02:03:52;99586.81;;;15.61;100.00
26087;BME280;13851;43.434;28.338;2022-11-20T02:06:26;99741.19;;;16.52;100.00
26087;BME280;13851;43.434;28.338;2022-11-20T02:08:53;99754.81;;;16.54;100.00
26087;BME280;13851;43.434;28.338;2022-11-20T02:11:20;99754.13;;;16.58;100.00
26087;BME280;13851;43.434;28.338;2022-11-20T02:13:47;99753.53;;;16.50;100.00
26087;BME280;13851;43.434;28.338;2022-11-20T02:18:42;99756.06;;;16.51;100.00
26087;BME280;13851;43.434;28.338;2022-11-20T02:24:08;99623.81;;;15.53;100.00
26087;BME280;13851;43.434;28.338;2022-11-20T02:26:44;99751.81;;;16.17;100.00
26087;BME280;13851;43.434;28.338;2022-11-20T02:29:13;99733.34;;;16.18;100.00
26087;BME280;13851;43.434;28.338;2022-11-20T02:31:42;99746.22;;;16.30;100.00
26087;BME280;13851;43.434;28.338;2022-11-20T02:34:09;99762.31;;;16.40;100.00
26087;BME280;13851;43.434;28.338;2022-11-20T02:36:35;99706.19;;;16.08;100.00
26087;BME280;13851;43.434;28.338;2022-11-20T02:39:03;99741.72;;;16.36;100.00
26087;BME280;13851;43.434;28.338;2022-11-20T02:41:36;99729.41;;;16.32;100.00
26087;BME280;13851;43.434;28.338;2022-11-20T02:44:03;99724.97;;;16.31;100.00
26087;BME280;13851;43.434;28.338;2022-11-20T02:46:29;99753.19;;;16.40;100.00
26087;BME280;13851;43.434;28.338;2022-11-20T02:48:54;99753.59;;;16.43;100.00
26087;BME280;13851;43.434;28.338;2022-11-20T02:51:20;99738.38;;;16.27;100.00
26087;BME280;13851;43.434;28.338;2022-11-20T02:53:45;99735.84;;;16.26;100.00
26087;BME280;13851;43.434;28.338;2022-11-20T02:56:11;99645.72;;;15.93;100.00
26087;BME280;13851;43.434;28.338;2022-11-20T02:58:37;99721.47;;;16.42;100.00
26087;BME280;13851;43.434;28.338;2022-11-20T03:01:02;99738.16;;;16.60;100.00
26087;BME280;13851;43.434;28.338;2022-11-20T03:03:28;99728.84;;;16.55;100.00
26087;BME280;13851;43.434;28.338;2022-11-20T03:05:53;99738.75;;;16.62;100.00
26087;BME280;13851;43.434;28.338;2022-11-20T03:08:18;99740.66;;;16.69;100.00
26087;BME280;13851;43.434;28.338;2022-11-20T03:10:44;99715.97;;;16.74;100.00
26087;BME280;13851;43.434;28.338;2022-11-20T03:13:09;99709.78;;;16.72;100.00
26087;BME280;13851;43.434;28.338;2022-11-20T03:15:36;99610.75;;;16.05;100.00
26087;BME280;13851;43.434;28.338;2022-11-20T03:18:02;99728.81;;;16.86;100.00
26087;BME280;13851;43.434;28.338;2022-11-20T03:20:32;99730.28;;;16.89;100.00
26087;BME280;13851;43.434;28.338;2022-11-20T03:22:58;99714.41;;;16.78;100.00
26087;BME280;13851;43.434;28.338;2022-11-20T03:25:23;99696.34;;;17.00;100.00
26087;BME280;13851;43.434;28.338;2022-11-20T03:27:49;99707.81;;;17.22;100.00
26087;BME280;13851;43.434;28.338;2022-11-20T03:30:14;99714.22;;;17.41;100.00
26087;BME280;13851;43.434;28.338;2022-11-20T03:32:43;99664.38;;;17.41;100.00
26087;BME280;13851;43.434;28.338;2022-11-20T03:35:09;99653.44;;;17.46;100.00
26087;BME280;13851;43.434;28.338;2022-11-20T03:37:35;99667.44;;;17.51;100.00
26087;BME280;13851;43.434;28.338;2022-11-20T03:40:00;99700.06;;;17.49;100.00
26087;BME280;13851;43.434;28.338;2022-11-20T03:42:26;99663.75;;;17.39;100.00
26087;BME280;13851;43.434;28.338;2022-11-20T03:45:10;99673.28;;;17.25;100.00
26087;BME280;13851;43.434;28.338;2022-11-20T03:47:35;99682.66;;;17.24;100.00
26087;BME280;13851;43.434;28.338;2022-11-20T03:50:01;99645.44;;;17.20;100.00
26087;BME280;13851;43.434;28.338;2022-11-20T03:52:26;99563.50;;;16.82;100.00
26087;BME280;13851;43.434;28.338;2022-11-20T03:54:52;99658.13;;;17.27;100.00
26087;BME280;13851;43.434;28.338;2022-11-20T03:57:17;99645.53;;;17.13;100.00
26087;BME280;13851;43.434;28.338;2022-11-20T03:59:43;99675.88;;;17.20;100.00
26087;BME280;13851;43.434;28.338;2022-11-20T04:02:08;99645.91;;;16.98;100.00
26087;BME280;13851;43.434;28.338;2022-11-20T04:04:34;99653.91;;;17.06;100.00
26087;BME280;13851;43.434;28.338;2022-11-20T04:06:59;99669.88;;;17.04;100.00
26087;BME280;13851;43.434;28.338;2022-11-20T04:09:25;99665.09;;;16.93;100.00
26087;BME280;13851;43.434;28.338;2022-11-20T04:11:50;99665.66;;;17.02;100.00
26087;BME280;13851;43.434;28.338;2022-11-20T04:14:16;99666.34;;;16.97;100.00
26087;BME280;13851;43.434;28.338;2022-11-20T04:16:44;99656.81;;;16.93;100.00
26087;BME280;13851;43.434;28.338;2022-11-20T04:19:15;99667.34;;;17.03;100.00
26087;BME280;13851;43.434;28.338;2022-11-20T04:21:42;99640.00;;;16.95;100.00
26087;BME280;13851;43.434;28.338;2022-11-20T04:24:07;99661.66;;;16.98;100.00
26087;BME280;13851;43.434;28.338;2022-11-20T04:26:34;99643.44;;;16.90;100.00
26087;BME280;13851;43.434;28.338;2022-11-20T04:29:03;99649.75;;;16.97;100.00
26087;BME280;13851;43.434;28.338;2022-11-20T04:31:30;99634.97;;;16.85;100.00
26087;BME280;13851;43.434;28.338;2022-11-20T04:34:02;99656.50;;;17.01;100.00
26087;BME280;13851;43.434;28.338;2022-11-20T04:36:29;99661.13;;;17.07;100.00
26087;BME280;13851;43.434;28.338;2022-11-20T04:39:00;99663.59;;;17.15;100.00
26087;BME280;13851;43.434;28.338;2022-11-20T04:41:29;99646.66;;;17.24;100.00
26087;BME280;13851;43.434;28.338;2022-11-20T04:43:57;99644.91;;;17.29;100.00
26087;BME280;13851;43.434;28.338;2022-11-20T04:46:29;99494.16;;;16.40;100.00
26087;BME280;13851;43.434;28.338;2022-11-20T04:48:56;99627.94;;;17.26;100.00
26087;BME280;13851;43.434;28.338;2022-11-20T04:51:21;99623.00;;;17.28;100.00
26087;BME280;13851;43.434;28.338;2022-11-20T04:53:47;99611.47;;;17.12;100.00
26087;BME280;13851;43.434;28.338;2022-11-20T04:56:13;99614.97;;;17.20;100.00
26087;BME280;13851;43.434;28.338;2022-11-20T04:58:40;99610.38;;;17.13;100.00
26087;BME280;13851;43.434;28.338;2022-11-20T05:01:08;99613.69;;;17.22;100.00
26087;BME280;13851;43.434;28.338;2022-11-20T05:03:34;99467.28;;;16.29;100.00
26087;BME280;13851;43.434;28.338;2022-11-20T05:06:01;99598.06;;;17.09;100.00
26087;BME280;13851;43.434;28.338;2022-11-20T05:08:27;99616.84;;;17.07;100.00
26087;BME280;13851;43.434;28.338;2022-11-20T05:10:53;99478.25;;;16.35;100.00
26087;BME280;13851;43.434;28.338;2022-11-20T05:13:18;99592.88;;;17.01;100.00
26087;BME280;13851;43.434;28.338;2022-11-20T05:15:44;99604.19;;;17.00;100.00
26087;BME280;13851;43.434;28.338;2022-11-20T05:18:09;99618.69;;;17.13;100.00
26087;BME280;13851;43.434;28.338;2022-11-20T05:20:35;99497.53;;;16.24;100.00
26087;BME280;13851;43.434;28.338;2022-11-20T05:23:01;99595.09;;;16.74;100.00
26087;BME280;13851;43.434;28.338;2022-11-20T05:25:27;99615.81;;;16.83;100.00
26087;BME280;13851;43.434;28.338;2022-11-20T05:27:53;99642.28;;;16.98;100.00
26087;BME280;13851;43.434;28.338;2022-11-20T05:30:18;99673.53;;;17.05;100.00
26087;BME280;13851;43.434;28.338;2022-11-20T05:32:44;99670.50;;;17.06;100.00
26087;BME280;13851;43.434;28.338;2022-11-20T05:35:09;99653.59;;;16.96;100.00
26087;BME280;13851;43.434;28.338;2022-11-20T05:37:35;99672.59;;;17.11;100.00
26087;BME280;13851;43.434;28.338;2022-11-20T05:40:00;99652.28;;;16.99;100.00
26087;BME280;13851;43.434;28.338;2022-11-20T05:42:30;99659.28;;;17.01;100.00
26087;BME280;13851;43.434;28.338;2022-11-20T05:45:00;99692.19;;;17.09;100.00
26087;BME280;13851;43.434;28.338;2022-11-20T05:47:27;99653.44;;;16.91;100.00
26087;BME280;13851;43.434;28.338;2022-11-20T05:49:53;99523.16;;;16.31;100.00
26087;BME280;13851;43.434;28.338;2022-11-20T05:52:19;99669.59;;;17.12;100.00
26087;BME280;13851;43.434;28.338;2022-11-20T05:54:45;99674.81;;;17.02;100.00
26087;BME280;13851;43.434;28.338;2022-11-20T05:57:10;99691.56;;;17.07;100.00
26087;BME280;13851;43.434;28.338;2022-11-20T05:59:36;99585.16;;;16.42;100.00
26087;BME280;13851;43.434;28.338;2022-11-20T06:02:01;99506.69;;;15.99;100.00
26087;BME280;13851;43.434;28.338;2022-11-20T06:04:27;99673.81;;;16.97;100.00
26087;BME280;13851;43.434;28.338;2022-11-20T06:06:52;99542.81;;;16.23;100.00
26087;BME280;13851;43.434;28.338;2022-11-20T06:09:17;99662.50;;;16.98;100.00
26087;BME280;13851;43.434;28.338;2022-11-20T06:11:43;99644.72;;;16.87;100.00
26087;BME280;13851;43.434;28.338;2022-11-20T06:14:08;99638.50;;;16.74;100.00
26087;BME280;13851;43.434;28.338;2022-11-20T06:16:34;99635.25;;;16.77;100.00
26087;BME280;13851;43.434;28.338;2022-11-20T06:18:59;99539.25;;;16.16;100.00
26087;BME280;13851;43.434;28.338;2022-11-20T06:21:25;99664.34;;;16.86;100.00
26087;BME280;13851;43.434;28.338;2022-11-20T06:23:52;99703.31;;;17.03;100.00
26087;BME280;13851;43.434;28.338;2022-11-20T06:26:24;99696.72;;;17.04;100.00
26087;BME280;13851;43.434;28.338;2022-11-20T06:28:50;99688.81;;;17.07;100.00
26087;BME280;13851;43.434;28.338;2022-11-20T06:31:19;99656.63;;;16.88;100.00
26087;BME280;13851;43.434;28.338;2022-11-20T06:33:45;99717.47;;;17.13;100.00
26087;BME280;13851;43.434;28.338;2022-11-20T06:36:12;99709.69;;;17.03;100.00
26087;BME280;13851;43.434;28.338;2022-11-20T06:38:39;99678.72;;;16.95;100.00
26087;BME280;13851;43.434;28.338;2022-11-20T06:41:06;99678.72;;;16.95;100.00
26087;BME280;13851;43.434;28.338;2022-11-20T06:43:32;99685.94;;;16.96;100.00
26087;BME280;13851;43.434;28.338;2022-11-20T06:45:58;99677.56;;;16.84;100.00
26087;BME280;13851;43.434;28.338;2022-11-20T06:48:26;99698.78;;;16.90;100.00
26087;BME280;13851;43.434;28.338;2022-11-20T06:50:51;99695.69;;;16.80;100.00
26087;BME280;13851;43.434;28.338;2022-11-20T06:53:17;99700.75;;;16.83;100.00
26087;BME280;13851;43.434;28.338;2022-11-20T06:55:44;99697.53;;;16.86;100.00
26087;BME280;13851;43.434;28.338;2022-11-20T06:58:10;99725.47;;;16.78;100.00
26087;BME280;13851;43.434;28.338;2022-11-20T07:00:36;99731.66;;;16.80;100.00
26087;BME280;13851;43.434;28.338;2022-11-20T07:03:09;99708.19;;;16.82;100.00
26087;BME280;13851;43.434;28.338;2022-11-20T07:05:35;99708.94;;;16.96;100.00
26087;BME280;13851;43.434;28.338;2022-11-20T07:08:04;99622.25;;;16.34;100.00
26087;BME280;13851;43.434;28.338;2022-11-20T07:10:30;99561.19;;;16.10;100.00
26087;BME280;13851;43.434;28.338;2022-11-20T07:12:56;99694.09;;;16.91;100.00
26087;BME280;13851;43.434;28.338;2022-11-20T07:15:23;99703.09;;;17.04;100.00
26087;BME280;13851;43.434;28.338;2022-11-20T07:17:49;99707.25;;;16.95;100.00
26087;BME280;13851;43.434;28.338;2022-11-20T07:20:18;99700.41;;;16.73;100.00
26087;BME280;13851;43.434;28.338;2022-11-20T07:22:44;99711.59;;;16.84;100.00
26087;BME280;13851;43.434;28.338;2022-11-20T07:25:10;99590.56;;;16.05;100.00
26087;BME280;13851;43.434;28.338;2022-11-20T07:27:36;99677.75;;;16.57;100.00
26087;BME280;13851;43.434;28.338;2022-11-20T07:30:03;99729.72;;;16.80;100.00
26087;BME280;13851;43.434;28.338;2022-11-20T07:32:28;99710.63;;;16.72;100.00
26087;BME280;13851;43.434;28.338;2022-11-20T07:34:54;99722.16;;;16.94;100.00
26087;BME280;13851;43.434;28.338;2022-11-20T07:37:19;99710.22;;;16.94;100.00
26087;BME280;13851;43.434;28.338;2022-11-20T07:39:45;99710.22;;;16.94;100.00
26087;BME280;13851;43.434;28.338;2022-11-20T07:42:10;99717.06;;;16.91;100.00
26087;BME280;13851;43.434;28.338;2022-11-20T07:44:37;99677.59;;;16.77;100.00
26087;BME280;13851;43.434;28.338;2022-11-20T07:47:03;99685.56;;;16.92;100.00
26087;BME280;13851;43.434;28.338;2022-11-20T07:49:29;99528.00;;;15.92;100.00
26087;BME280;13851;43.434;28.338;2022-11-20T07:51:55;99683.59;;;16.74;100.00
26087;BME280;13851;43.434;28.338;2022-11-20T07:54:21;99699.28;;;16.80;100.00
26087;BME280;13851;43.434;28.338;2022-11-20T07:56:47;99632.28;;;16.53;100.00
26087;BME280;13851;43.434;28.338;2022-11-20T07:59:15;99705.22;;;16.84;100.00
26087;BME280;13851;43.434;28.338;2022-11-20T08:01:41;99708.53;;;16.93;100.00
26087;BME280;13851;43.434;28.338;2022-11-20T08:04:07;99729.72;;;17.05;100.00
26087;BME280;13851;43.434;28.338;2022-11-20T08:06:34;99696.50;;;17.05;100.00
26087;BME280;13851;43.434;28.338;2022-11-20T08:09:00;99705.72;;;17.18;100.00
26087;BME280;13851;43.434;28.338;2022-11-20T08:11:28;99572.00;;;16.37;100.00
26087;BME280;13851;43.434;28.338;2022-11-20T08:14:12;99686.97;;;17.20;100.00
26087;BME280;13851;43.434;28.338;2022-11-20T08:16:39;99691.28;;;17.15;100.00
26087;BME280;13851;43.434;28.338;2022-11-20T08:19:04;99676.66;;;17.08;100.00
26087;BME280;13851;43.434;28.338;2022-11-20T08:21:31;99701.34;;;17.10;100.00
26087;BME280;13851;43.434;28.338;2022-11-20T08:23:57;99701.44;;;17.22;100.00
26087;BME280;13851;43.434;28.338;2022-11-20T08:26:23;99695.09;;;17.14;100.00
26087;BME280;13851;43.434;28.338;2022-11-20T08:28:53;99703.16;;;17.41;100.00
26087;BME280;13851;43.434;28.338;2022-11-20T08:31:20;99572.16;;;16.42;100.00
26087;BME280;13851;43.434;28.338;2022-11-20T08:33:46;99684.50;;;17.48;100.00
26087;BME280;13851;43.434;28.338;2022-11-20T08:36:13;99713.34;;;17.59;100.00
26087;BME280;13851;43.434;28.338;2022-11-20T08:38:39;99645.06;;;17.34;100.00
26087;BME280;13851;43.434;28.338;2022-11-20T08:41:05;99566.56;;;16.92;100.00
26087;BME280;13851;43.434;28.338;2022-11-20T08:44:00;99665.53;;;17.52;100.00
26087;BME280;13851;43.434;28.338;2022-11-20T08:46:28;99664.50;;;17.64;100.00
26087;BME280;13851;43.434;28.338;2022-11-20T08:48:55;99685.88;;;17.76;100.00
26087;BME280;13851;43.434;28.338;2022-11-20T08:51:21;99655.72;;;17.67;100.00
26087;BME280;13851;43.434;28.338;2022-11-20T08:53:47;99678.66;;;17.75;100.00
26087;BME280;13851;43.434;28.338;2022-11-20T08:56:14;99679.13;;;17.72;100.00
26087;BME280;13851;43.434;28.338;2022-11-20T08:58:39;99654.81;;;17.55;100.00
26087;BME280;13851;43.434;28.338;2022-11-20T09:01:05;99532.81;;;16.83;100.00
26087;BME280;13851;43.434;28.338;2022-11-20T09:03:31;99655.88;;;17.54;100.00
26087;BME280;13851;43.434;28.338;2022-11-20T09:06:03;99632.34;;;17.45;100.00
26087;BME280;13851;43.434;28.338;2022-11-20T09:08:29;99631.09;;;17.59;100.00
26087;BME280;13851;43.434;28.338;2022-11-20T09:10:56;99662.50;;;17.72;100.00
26087;BME280;13851;43.434;28.338;2022-11-20T09:13:23;99502.34;;;16.90;100.00
26087;BME280;13851;43.434;28.338;2022-11-20T09:15:53;99646.66;;;17.79;100.00
26087;BME280;13851;43.434;28.338;2022-11-20T09:18:19;99626.03;;;17.75;100.00
26087;BME280;13851;43.434;28.338;2022-11-20T09:20:45;99522.78;;;17.19;100.00
26087;BME280;13851;43.434;28.338;2022-11-20T09:23:14;99577.88;;;17.57;100.00
26087;BME280;13851;43.434;28.338;2022-11-20T09:25:40;99612.16;;;17.75;100.00
26087;BME280;13851;43.434;28.338;2022-11-20T09:28:06;99632.66;;;17.74;100.00
26087;BME280;13851;43.434;28.338;2022-11-20T09:30:34;99599.09;;;17.63;100.00
26087;BME280;13851;43.434;28.338;2022-11-20T09:33:04;99603.69;;;17.70;100.00
26087;BME280;13851;43.434;28.338;2022-11-20T09:35:29;99611.41;;;17.67;100.00
26087;BME280;13851;43.434;28.338;2022-11-20T09:37:55;99629.41;;;17.58;100.00
26087;BME280;13851;43.434;28.338;2022-11-20T09:40:28;99635.81;;;17.59;100.00
26087;BME280;13851;43.434;28.338;2022-11-20T09:56:21;99616.84;;;18.04;100.00
26087;BME280;13851;43.434;28.338;2022-11-20T09:58:52;99620.84;;;18.08;100.00
26087;BME280;13851;43.434;28.338;2022-11-20T10:01:21;99561.75;;;17.96;100.00
26087;BME280;13851;43.434;28.338;2022-11-20T10:03:55;99428.47;;;17.21;100.00
26087;BME280;13851;43.434;28.338;2022-11-20T10:06:37;99573.78;;;17.90;100.00
26087;BME280;13851;43.434;28.338;2022-11-20T10:11:56;99578.59;;;17.83;100.00
26087;BME280;13851;43.434;28.338;2022-11-20T10:22:26;99575.97;;;18.00;100.00
26087;BME280;13851;43.434;28.338;2022-11-20T10:30:20;99555.03;;;18.15;100.00
26087;BME280;13851;43.434;28.338;2022-11-20T10:35:49;99544.91;;;18.21;100.00
26087;BME280;13851;43.434;28.338;2022-11-20T10:38:20;99559.75;;;18.27;100.00
26087;BME280;13851;43.434;28.338;2022-11-20T10:41:01;99552.19;;;18.34;100.00
26087;BME280;13851;43.434;28.338;2022-11-20T10:43:47;99550.97;;;18.30;100.00
26087;BME280;13851;43.434;28.338;2022-11-20T10:46:25;99558.44;;;18.41;100.00
26087;BME280;13851;43.434;28.338;2022-11-20T10:48:51;99477.53;;;17.97;100.00
26087;BME280;13851;43.434;28.338;2022-11-20T11:01:41;99543.09;;;18.27;100.00
26087;BME280;13851;43.434;28.338;2022-11-20T11:04:23;99549.63;;;18.21;100.00
26087;BME280;13851;43.434;28.338;2022-11-20T11:06:58;99545.16;;;18.19;100.00
26087;BME280;13851;43.434;28.338;2022-11-20T11:09:34;99537.06;;;18.06;100.00
26087;BME280;13851;43.434;28.338;2022-11-20T11:12:00;99418.19;;;17.51;100.00
26087;BME280;13851;43.434;28.338;2022-11-20T11:14:26;99513.13;;;18.12;100.00
26087;BME280;13851;43.434;28.338;2022-11-20T11:16:56;99468.03;;;17.93;100.00
26087;BME280;13851;43.434;28.338;2022-11-20T11:19:23;99536.63;;;18.33;100.00
26087;BME280;13851;43.434;28.338;2022-11-20T11:21:51;99545.16;;;18.31;100.00
26087;BME280;13851;43.434;28.338;2022-11-20T11:24:25;99533.22;;;18.19;100.00
26087;BME280;13851;43.434;28.338;2022-11-20T11:27:03;99381.94;;;17.41;100.00
26087;BME280;13851;43.434;28.338;2022-11-20T11:29:30;99473.56;;;17.93;100.00
26087;BME280;13851;43.434;28.338;2022-11-20T11:32:17;99539.41;;;18.33;100.00
26087;BME280;13851;43.434;28.338;2022-11-20T11:34:43;99560.50;;;18.22;100.00
26087;BME280;13851;43.434;28.338;2022-11-20T11:37:17;99545.63;;;18.05;100.00
26087;BME280;13851;43.434;28.338;2022-11-20T11:39:44;99598.19;;;18.11;100.00
26087;BME280;13851;43.434;28.338;2022-11-20T11:42:17;99531.88;;;17.86;100.00
26087;BME280;13851;43.434;28.338;2022-11-20T11:44:47;99566.50;;;18.07;100.00
26087;BME280;13851;43.434;28.338;2022-11-20T11:47:45;99580.25;;;18.14;100.00
26087;BME280;13851;43.434;28.338;2022-11-20T11:55:29;99579.84;;;17.99;100.00
26087;BME280;13851;43.434;28.338;2022-11-20T11:58:44;99585.00;;;17.95;100.00
26087;BME280;13851;43.434;28.338;2022-11-20T12:01:34;99608.72;;;17.91;100.00
26087;BME280;13851;43.434;28.338;2022-11-20T12:06:36;99400.22;;;16.70;100.00
26087;BME280;13851;43.434;28.338;2022-11-20T12:09:08;99601.19;;;17.98;100.00
26087;BME280;13851;43.434;28.338;2022-11-20T12:12:17;99597.19;;;17.94;100.00
26087;BME280;13851;43.434;28.338;2022-11-20T12:14:48;99607.94;;;17.72;100.00
26087;BME280;13851;43.434;28.338;2022-11-20T12:17:15;99608.00;;;17.65;100.00
26087;BME280;13851;43.434;28.338;2022-11-20T12:19:43;99462.06;;;16.76;100.00
26087;BME280;13851;43.434;28.338;2022-11-20T12:25:06;99611.75;;;17.41;100.00
26087;BME280;13851;43.434;28.338;2022-11-20T12:30:20;99631.06;;;17.29;100.00
26087;BME280;13851;43.434;28.338;2022-11-20T12:32:55;99622.06;;;17.34;100.00
26087;BME280;13851;43.434;28.338;2022-11-20T12:43:55;99601.19;;;17.98;100.00
26087;BME280;13851;43.434;28.338;2022-11-20T12:53:05;99581.72;;;18.40;100.00
26087;BME280;13851;43.434;28.338;2022-11-20T12:55:50;99550.72;;;18.31;100.00
26087;BME280;13851;43.434;28.338;2022-11-20T12:58:48;99562.41;;;18.57;100.00
26087;BME280;13851;43.434;28.338;2022-11-20T13:01:30;99565.44;;;18.55;100.00
26087;BME280;13851;43.434;28.338;2022-11-20T13:07:10;99555.66;;;18.41;100.00
26087;BME280;13851;43.434;28.338;2022-11-20T13:09:41;99559.16;;;18.36;100.00
26087;BME280;13851;43.434;28.338;2022-11-20T13:12:13;99416.72;;;17.60;100.00
26087;BME280;13851;43.434;28.338;2022-11-20T13:17:28;99553.25;;;18.56;100.00
26087;BME280;13851;43.434;28.338;2022-11-20T13:19:56;99569.91;;;18.56;100.00
26087;BME280;13851;43.434;28.338;2022-11-20T13:22:29;99533.34;;;18.48;100.00
26087;BME280;13851;43.434;28.338;2022-11-20T13:24:55;99543.94;;;18.62;100.00
26087;BME280;13851;43.434;28.338;2022-11-20T13:27:23;99420.06;;;18.04;100.00
26087;BME280;13851;43.434;28.338;2022-11-20T13:30:21;99568.34;;;18.84;100.00
26087;BME280;13851;43.434;28.338;2022-11-20T13:33:08;99546.25;;;18.89;100.00
26087;BME280;13851;43.434;28.338;2022-11-20T13:35:37;99523.69;;;18.85;100.00
26087;BME280;13851;43.434;28.338;2022-11-20T13:38:08;99513.91;;;18.83;100.00
26087;BME280;13851;43.434;28.338;2022-11-20T13:40:37;99547.44;;;18.93;100.00
26087;BME280;13851;43.434;28.338;2022-11-20T13:43:39;99527.44;;;18.79;100.00
26087;BME280;13851;43.434;28.338;2022-11-20T13:46:08;99522.84;;;18.85;100.00
26087;BME280;13851;43.434;28.338;2022-11-20T13:57:09;99504.78;;;18.59;100.00
26087;BME280;13851;43.434;28.338;2022-11-20T14:00:24;99407.28;;;18.03;100.00
26087;BME280;13851;43.434;28.338;2022-11-20T14:02:45;99520.94;;;18.74;100.00
26087;BME280;13851;43.434;28.338;2022-11-20T14:05:21;99534.22;;;18.72;100.00
26087;BME280;13851;43.434;28.338;2022-11-20T14:07:49;99542.28;;;18.73;100.00
26087;BME280;13851;43.434;28.338;2022-11-20T14:10:28;99518.75;;;18.52;100.00
26087;BME280;13851;43.434;28.338;2022-11-20T14:12:54;99543.13;;;18.50;100.00
26087;BME280;13851;43.434;28.338;2022-11-20T14:15:29;99547.97;;;18.43;100.00
26087;BME280;13851;43.434;28.338;2022-11-20T14:17:55;99525.63;;;18.26;100.00
26087;BME280;13851;43.434;28.338;2022-11-20T14:20:24;99411.56;;;17.64;100.00
26087;BME280;13851;43.434;28.338;2022-11-20T14:22:52;99538.66;;;18.37;100.00
26087;BME280;13851;43.434;28.338;2022-11-20T14:27:55;99515.63;;;18.25;100.00
26087;BME280;13851;43.434;28.338;2022-11-20T14:30:25;99541.53;;;18.31;100.00